Time;durP1;ratioP1;P1;durP2;ratioP2;P2;SDS_P1;SDS_P2;PMS_P1;PMS_P2;Temp;Humidity;BMP_temperature;BMP_pressure;BME280_temperature;BME280_humidity;BME280_pressure;Samples;Min_cycle;Max_cycle;Signal;HPM_P1;HPM_P2
2022/04/26 03:36:59;;;;;;;10.38;6.40;;;;;;;5.09;71.89;100484.09;5062903;28;20036;-69
2022/04/26 03:39:25;;;;;;;12.05;7.20;;;;;;;5.14;71.87;100490.19;5045616;28;20178;-70
2022/04/26 03:41:51;;;;;;;12.07;6.43;;;;;;;5.16;71.63;100480.75;5063292;28;20025;-70
2022/04/26 03:44:16;;;;;;;14.75;7.28;;;;;;;5.23;71.47;100476.59;5045664;28;20039;-70
2022/04/26 03:46:42;;;;;;;13.32;7.43;;;;;;;5.26;71.56;100479.19;5063254;28;20025;-69
2022/04/26 03:49:07;;;;;;;14.95;7.05;;;;;;;5.28;71.59;100481.78;5063354;28;20024;-70
2022/04/26 03:51:33;;;;;;;14.98;7.45;;;;;;;5.30;71.69;100482.69;5063460;28;20032;-70
2022/04/26 03:53:58;;;;;;;12.52;6.75;;;;;;;5.35;71.52;100482.75;5063306;28;20036;-70
2022/04/26 03:56:24;;;;;;;15.43;7.35;;;;;;;5.35;71.41;100482.75;5062948;28;20093;-70
2022/04/26 03:58:49;;;;;;;15.75;6.95;;;;;;;5.41;71.37;100483.72;5063435;28;20041;-70
2022/04/26 04:01:15;;;;;;;11.27;6.63;;;;;;;5.40;71.43;100475.97;5045162;28;20025;-70
2022/04/26 04:03:41;;;;;;;12.45;6.80;;;;;;;5.45;71.42;100487.19;5063304;28;20421;-71
2022/04/26 04:06:06;;;;;;;14.18;6.53;;;;;;;5.44;71.33;100488.91;5063088;28;20093;-71
2022/04/26 04:08:32;;;;;;;11.70;6.10;;;;;;;5.43;71.28;100478.59;5063349;28;20021;-70
2022/04/26 04:10:57;;;;;;;15.27;7.25;;;;;;;5.51;71.28;100489.00;5063112;28;20021;-71
2022/04/26 04:13:22;;;;;;;12.50;6.45;;;;;;;5.59;70.91;100495.13;5062292;28;20025;-70
2022/04/26 04:15:48;;;;;;;13.27;6.85;;;;;;;5.62;70.86;100490.00;5062975;28;20013;-70
2022/04/26 04:20:57;;;;;;;9.23;5.10;;;;;;;5.78;70.52;100487.63;5062883;28;20036;-70
2022/04/26 04:23:23;;;;;;;6.97;4.70;;;;;;;5.90;70.44;100480.03;5063028;28;20024;-70
2022/04/26 04:25:49;;;;;;;7.78;4.57;;;;;;;6.19;70.30;100486.41;5062938;28;20025;-70
2022/04/26 04:28:15;;;;;;;9.50;4.63;;;;;;;6.44;70.19;100486.66;5062629;28;20023;-71
2022/04/26 04:30:41;;;;;;;9.30;5.40;;;;;;;6.68;69.76;100477.41;5062668;28;20330;-71
2022/04/26 04:33:06;;;;;;;7.63;3.83;;;;;;;6.98;69.80;100472.50;5062687;28;20057;-70
2022/04/26 04:35:31;;;;;;;10.90;4.43;;;;;;;7.38;69.57;100474.50;5062829;28;20041;-70
2022/04/26 04:37:57;;;;;;;8.65;3.72;;;;;;;7.94;69.32;100467.84;5062952;28;20057;-70
2022/04/26 04:40:22;;;;;;;10.18;4.13;;;;;;;8.65;68.50;100471.50;5062667;28;20087;-72
2022/04/26 04:42:47;;;;;;;5.00;3.10;;;;;;;9.50;67.83;100479.16;5062642;28;20029;-71
2022/04/26 04:45:13;;;;;;;5.93;3.40;;;;;;;10.21;66.91;100474.56;5062686;28;20036;-69
2022/04/26 04:47:38;;;;;;;3.60;2.60;;;;;;;10.87;63.60;100481.03;5062609;28;20017;-69
2022/04/26 04:50:04;;;;;;;7.20;2.95;;;;;;;11.53;62.70;100477.81;5062731;28;20037;-68
2022/04/26 04:52:29;;;;;;;4.30;2.85;;;;;;;12.18;60.53;100485.69;5062688;28;20027;-68
2022/04/26 04:54:55;;;;;;;5.18;2.78;;;;;;;12.35;58.00;100482.84;5062741;28;20043;-69
2022/04/26 04:57:20;;;;;;;5.18;2.53;;;;;;;12.29;56.60;100488.13;5062553;28;20036;-70
2022/04/26 04:59:45;;;;;;;4.07;3.20;;;;;;;11.87;55.22;100477.38;5062752;28;20021;-69
2022/04/26 05:02:11;;;;;;;5.20;3.60;;;;;;;11.59;56.00;100487.25;5062516;28;20025;-69
2022/04/26 05:04:36;;;;;;;6.32;3.58;;;;;;;11.72;55.28;100481.06;5062421;28;20028;-69
2022/04/26 05:07:02;;;;;;;5.15;2.72;;;;;;;11.73;54.74;100476.69;5062513;28;20025;-68
2022/04/26 05:09:28;;;;;;;6.25;3.13;;;;;;;11.53;53.46;100481.25;5062692;28;20021;-70
2022/04/26 05:11:53;;;;;;;7.70;3.00;;;;;;;11.16;53.20;100492.03;5062590;28;20055;-68
2022/04/26 05:14:19;;;;;;;6.93;3.03;;;;;;;10.69;53.02;100486.38;5062394;28;20032;-66
2022/04/26 05:16:44;;;;;;;4.38;3.22;;;;;;;10.22;53.61;100492.72;5062320;28;20051;-66
2022/04/26 05:19:09;;;;;;;6.70;3.10;;;;;;;9.85;53.50;100488.56;5062370;28;20032;-67
2022/04/26 05:21:34;;;;;;;6.93;3.00;;;;;;;9.52;53.98;100495.59;5062299;28;20021;-68
2022/04/26 05:26:44;;;;;;;8.82;3.88;;;;;;;9.18;54.45;100510.28;5065722;28;20563;-68
2022/04/26 05:29:09;;;;;;;8.75;3.47;;;;;;;8.88;54.33;100487.91;5065975;28;20024;-68
2022/04/26 05:31:34;;;;;;;11.45;3.42;;;;;;;8.75;54.69;100505.13;5065940;28;20029;-69
2022/04/26 05:34:00;;;;;;;5.05;2.42;;;;;;;8.64;54.66;100507.72;5065631;28;20132;-69
2022/04/26 05:36:25;;;;;;;7.93;3.03;;;;;;;8.45;54.83;100491.28;5065713;28;20032;-68
2022/04/26 05:38:50;;;;;;;3.97;2.55;;;;;;;8.44;55.30;100518.84;5065869;28;20029;-69
2022/04/26 05:41:15;;;;;;;6.38;3.13;;;;;;;8.46;55.18;100517.16;5065872;28;20051;-69
2022/04/26 05:43:41;;;;;;;6.20;2.78;;;;;;;8.50;55.34;100505.09;5065324;28;20450;-70
2022/04/26 05:46:11;;;;;;;5.97;2.30;;;;;;;8.63;55.29;100509.44;5065353;28;20051;-70
2022/04/26 05:48:36;;;;;;;3.38;1.98;;;;;;;9.03;55.38;100512.91;5065800;28;20028;-68
2022/04/26 05:51:02;;;;;;;6.32;3.05;;;;;;;9.64;55.36;100516.28;5047654;28;20033;-70
2022/04/26 05:53:27;;;;;;;6.03;2.30;;;;;;;10.13;53.81;100514.34;5065478;28;20029;-69
2022/04/26 05:55:52;;;;;;;8.57;2.65;;;;;;;10.73;53.53;100506.25;5064535;28;20025;-70
2022/04/26 05:58:18;;;;;;;5.35;2.80;;;;;;;11.59;52.43;100502.84;5064256;28;20013;-68
2022/04/26 06:00:43;;;;;;;3.45;1.58;;;;;;;11.87;48.61;100489.53;5064671;28;20044;-69
2022/04/26 06:03:08;;;;;;;3.22;2.15;;;;;;;12.01;48.12;100503.22;5047671;28;20040;-67
2022/04/26 06:05:34;;;;;;;2.67;1.92;;;;;;;11.81;47.68;100500.00;5064954;28;20498;-69
2022/04/26 06:07:59;;;;;;;3.65;1.98;;;;;;;11.52;47.84;100510.72;5064921;28;20046;-69
2022/04/26 06:10:25;;;;;;;3.25;1.80;;;;;;;11.37;48.30;100519.53;5065063;28;20079;-69
2022/04/26 06:12:50;;;;;;;4.03;1.80;;;;;;;11.35;48.59;100518.72;5064732;28;20559;-70
2022/04/26 06:15:17;;;;;;;2.90;1.58;;;;;;;11.57;48.38;100508.06;5064828;28;20048;-70
2022/04/26 06:17:43;;;;;;;4.72;1.65;;;;;;;11.67;47.04;100515.78;5063912;28;20025;-68
2022/04/26 06:20:09;;;;;;;4.88;1.58;;;;;;;11.52;47.23;100520.25;5064441;28;20047;-68
2022/04/26 06:22:34;;;;;;;3.08;1.50;;;;;;;11.47;47.19;100527.28;5064564;28;20558;-69
2022/04/26 06:24:59;;;;;;;2.63;1.50;;;;;;;11.54;46.84;100528.91;5064571;28;20051;-69
2022/04/26 06:27:25;;;;;;;2.70;1.50;;;;;;;11.59;45.97;100526.25;5064552;28;20032;-69
2022/04/26 06:29:50;;;;;;;2.30;1.05;;;;;;;11.64;45.67;100520.16;5064571;28;20518;-70
2022/04/26 06:32:15;;;;;;;5.68;1.17;;;;;;;11.63;45.92;100525.34;5064770;28;20070;-67
2022/04/26 06:34:41;;;;;;;1.33;0.95;;;;;;;11.74;45.51;100533.06;5064501;28;20567;-64
2022/04/26 06:37:06;;;;;;;4.70;1.33;;;;;;;11.70;46.03;100529.63;5064217;28;20017;-69
2022/04/26 06:39:31;;;;;;;3.53;1.10;;;;;;;11.68;45.93;100513.16;5064596;28;20021;-68
2022/04/26 06:41:57;;;;;;;3.45;0.90;;;;;;;11.64;45.30;100532.28;5064476;28;20085;-68
2022/04/26 06:44:22;;;;;;;2.72;0.90;;;;;;;11.38;45.45;100539.47;5046302;28;20025;-68
2022/04/26 06:46:47;;;;;;;1.80;1.17;;;;;;;11.27;45.53;100559.50;5064327;28;20021;-69
2022/04/26 06:49:13;;;;;;;2.30;1.10;;;;;;;11.07;45.99;100551.88;5064680;28;20074;-69
2022/04/26 06:51:42;;;;;;;1.98;1.00;;;;;;;11.08;46.40;100558.78;5064372;28;20389;-69
2022/04/26 06:54:08;;;;;;;1.98;0.95;;;;;;;10.99;46.48;100557.97;5064387;28;20021;-69
2022/04/26 06:56:33;;;;;;;3.85;1.40;;;;;;;11.04;46.43;100550.16;5046251;28;20081;-69
2022/04/26 06:58:59;;;;;;;3.28;1.20;;;;;;;11.09;46.42;100566.56;5064417;28;20110;-69
2022/04/26 07:01:24;;;;;;;2.05;1.00;;;;;;;11.11;46.50;100557.03;5064210;28;20451;-69
2022/04/26 07:03:50;;;;;;;2.95;0.90;;;;;;;11.19;46.05;100553.50;5064270;28;20040;-69
2022/04/26 07:06:15;;;;;;;2.20;1.05;;;;;;;11.10;46.48;100559.66;5063966;28;20021;-68
2022/04/26 07:08:41;;;;;;;2.03;1.00;;;;;;;11.25;46.46;100556.03;5064090;28;20082;-69
2022/04/26 07:11:06;;;;;;;2.08;1.30;;;;;;;11.42;45.93;100560.25;5063945;28;20037;-70
2022/04/26 07:13:31;;;;;;;5.05;1.27;;;;;;;11.35;45.91;100575.03;5063702;28;20021;-68
2022/04/26 07:15:57;;;;;;;2.20;0.90;;;;;;;11.34;45.56;100574.16;5063953;28;20520;-68
2022/04/26 07:18:22;;;;;;;1.63;0.98;;;;;;;11.29;45.86;100570.75;5063950;28;20047;-69
2022/04/26 07:20:47;;;;;;;1.77;1.10;;;;;;;11.27;45.70;100573.38;5063833;28;20032;-69
2022/04/26 07:23:13;;;;;;;2.00;1.15;;;;;;;11.27;45.82;100583.75;5063946;28;20021;-69
2022/04/26 07:25:39;;;;;;;1.70;1.33;;;;;;;11.31;45.74;100594.13;5063649;28;20025;-70
2022/04/26 07:28:05;;;;;;;1.77;1.05;;;;;;;11.34;45.64;100576.75;5062838;28;20029;-69
2022/04/26 07:30:38;;;;;;;3.15;0.90;;;;;;;11.42;45.51;100587.09;5062691;28;20312;-69
2022/04/26 07:35:49;;;;;;;1.10;0.80;;;;;;;11.45;44.99;100581.88;5063875;28;20112;-70
2022/04/26 07:38:15;;;;;;;1.77;1.13;;;;;;;11.41;45.01;100593.16;5063675;28;20473;-69
2022/04/26 07:40:41;;;;;;;2.30;1.25;;;;;;;11.32;45.32;100588.91;5063636;28;20156;-70
2022/04/26 07:43:06;;;;;;;5.22;1.10;;;;;;;11.36;45.58;100595.81;5063450;28;20021;-69
2022/04/26 07:45:32;;;;;;;1.95;1.10;;;;;;;11.54;45.57;100599.13;5045377;28;20031;-69
2022/04/26 07:47:59;;;;;;;1.35;1.08;;;;;;;11.70;44.79;100601.56;5063123;28;20048;-68
2022/04/26 07:50:25;;;;;;;1.90;0.90;;;;;;;11.69;44.38;100594.66;5063278;28;20074;-68
2022/04/26 07:52:51;;;;;;;2.63;0.90;;;;;;;11.72;44.44;100602.41;5063380;28;20093;-69
2022/04/26 07:55:16;;;;;;;2.05;0.98;;;;;;;11.66;44.66;100598.16;5045220;28;20509;-69
2022/04/26 07:57:41;;;;;;;1.63;0.70;;;;;;;11.62;44.50;100601.63;5063168;28;20013;-69
2022/04/26 08:00:07;;;;;;;3.25;1.08;;;;;;;11.68;44.51;100606.78;5063379;28;20033;-69
2022/04/26 08:02:33;;;;;;;1.23;0.90;;;;;;;11.88;44.12;100608.31;5063167;28;20025;-69
2022/04/26 08:05:01;;;;;;;1.58;0.80;;;;;;;12.07;44.32;100606.38;5063073;28;20067;-69
2022/04/26 08:07:28;;;;;;;3.63;0.90;;;;;;;12.28;43.54;100601.84;5063103;28;20032;-69
2022/04/26 08:09:54;;;;;;;2.80;1.00;;;;;;;12.37;43.12;100604.31;5063167;28;20017;-69
2022/04/26 08:12:20;;;;;;;3.30;1.20;;;;;;;12.32;43.27;100605.25;5062866;28;20404;-70
2022/04/26 08:14:45;;;;;;;1.27;0.98;;;;;;;12.38;43.88;100595.63;5063078;28;20021;-70
2022/04/26 08:17:11;;;;;;;1.00;0.90;;;;;;;12.73;43.46;100601.22;5063007;28;20032;-70
2022/04/26 08:19:37;;;;;;;1.50;1.00;;;;;;;12.87;42.63;100614.06;5063048;28;20045;-68
2022/04/26 08:22:03;;;;;;;2.92;1.67;;;;;;;12.81;42.63;100616.75;5044941;28;20032;-69
2022/04/26 08:27:30;;;;;;;2.78;1.10;;;;;;;12.76;42.07;100616.81;5062559;28;20067;-68
2022/04/26 08:30:00;;;;;;;3.47;0.82;;;;;;;12.74;42.59;100612.50;5062873;28;20469;-69
2022/04/26 08:32:26;;;;;;;1.35;0.90;;;;;;;12.72;42.56;100609.06;5063231;28;20361;-69
2022/04/26 08:34:55;;;;;;;4.32;0.90;;;;;;;12.92;42.80;100619.22;5062585;28;20124;-69
2022/04/26 08:37:21;;;;;;;1.88;1.00;;;;;;;12.94;42.14;100624.41;5062528;28;20095;-69
2022/04/26 08:39:48;;;;;;;1.90;0.93;;;;;;;12.73;42.13;100616.84;5062651;28;20057;-69
2022/04/26 08:42:14;;;;;;;1.35;0.90;;;;;;;12.61;42.58;100623.09;5062596;28;20028;-69
2022/04/26 08:44:40;;;;;;;1.40;0.93;;;;;;;12.79;42.58;100622.88;5062815;28;20080;-68
2022/04/26 08:52:48;;;;;;;8.82;1.77;;;;;;;13.54;42.05;100633.03;5062710;28;20090;-69
2022/04/26 08:55:14;;;;;;;4.43;1.10;;;;;;;13.86;41.24;100647.28;5062639;28;20066;-70
2022/04/26 08:57:40;;;;;;;1.40;0.90;;;;;;;14.00;40.85;100661.78;5062677;28;20013;-70
2022/04/26 09:00:07;;;;;;;1.83;1.00;;;;;;;13.87;40.04;100650.72;5064601;28;20253;-69
2022/04/26 09:02:32;;;;;;;2.75;1.42;;;;;;;13.54;40.42;100656.50;5066464;28;20037;-69
2022/04/26 09:05:08;;;;;;;3.03;1.00;;;;;;;13.47;41.02;100660.06;5066273;28;20024;-69
2022/04/26 09:07:35;;;;;;;1.85;1.10;;;;;;;13.69;40.64;100659.75;5066215;28;20032;-69
2022/04/26 09:10:09;;;;;;;3.17;1.05;;;;;;;13.85;40.89;100660.34;5066200;28;20108;-69
2022/04/26 09:13:10;;;;;;;1.95;0.82;;;;;;;14.29;40.57;100649.94;5066050;28;20041;-69
2022/04/26 09:15:39;;;;;;;2.75;1.08;;;;;;;14.92;39.62;100648.66;5065995;28;20071;-69
2022/04/26 09:18:26;;;;;;;1.77;0.98;;;;;;;15.68;39.10;100651.19;5066064;28;20186;-69
2022/04/26 09:21:13;;;;;;;2.28;0.85;;;;;;;16.39;36.82;100661.53;5066087;28;20098;-70
2022/04/26 09:23:39;;;;;;;1.80;0.90;;;;;;;16.42;36.25;100657.97;5065352;28;20515;-68
2022/04/26 09:26:07;;;;;;;2.90;0.90;;;;;;;16.46;35.85;100654.34;5065907;28;20028;-69
2022/04/26 09:28:34;;;;;;;2.00;1.02;;;;;;;16.42;35.43;100650.09;5065808;28;20020;-69
2022/04/26 09:31:00;;;;;;;1.85;1.20;;;;;;;16.58;35.17;100656.59;5065710;28;20057;-69
2022/04/26 09:33:31;;;;;;;1.20;0.65;;;;;;;16.65;34.33;100666.91;5065505;28;20049;-69
2022/04/26 09:36:01;;;;;;;2.35;0.80;;;;;;;16.58;35.15;100661.84;5065777;28;20076;-69
2022/04/26 09:38:31;;;;;;;3.03;1.05;;;;;;;17.08;34.92;100664.75;5065806;28;20021;-70
2022/04/26 09:41:00;;;;;;;1.30;0.90;;;;;;;17.70;34.29;100668.00;5066005;28;20048;-69
2022/04/26 09:43:26;;;;;;;2.10;0.98;;;;;;;18.09;33.53;100677.16;5065367;28;20029;-69
2022/04/26 09:45:56;;;;;;;1.80;1.10;;;;;;;18.35;33.09;100657.91;5065552;28;20043;-69
2022/04/26 09:48:39;;;;;;;2.83;1.15;;;;;;;18.63;32.76;100662.97;5065420;28;20036;-70
2022/04/26 09:51:08;;;;;;;0.85;0.70;;;;;;;18.64;31.42;100658.59;5065554;28;20025;-70
2022/04/26 09:53:34;;;;;;;1.75;0.93;;;;;;;18.35;31.69;100658.75;5047470;28;20025;-69
2022/04/26 09:56:02;;;;;;;2.20;0.82;;;;;;;18.46;31.65;100655.72;5065212;28;20393;-68
2022/04/26 09:58:29;;;;;;;3.28;0.80;;;;;;;18.00;31.86;100656.47;5065064;28;20041;-68
2022/04/26 10:00:57;;;;;;;1.88;1.10;;;;;;;17.87;32.09;100652.56;5063893;28;20028;-68
2022/04/26 10:03:30;;;;;;;1.65;0.77;;;;;;;18.05;32.28;100662.41;5065330;28;20021;-68
2022/04/26 10:06:03;;;;;;;3.30;1.20;;;;;;;18.32;31.85;100654.47;5065280;28;20029;-69
2022/04/26 10:08:32;;;;;;;1.02;0.73;;;;;;;18.39;31.67;100662.97;5065254;28;20106;-69
2022/04/26 10:10:59;;;;;;;2.33;0.85;;;;;;;18.65;30.98;100655.03;5064328;28;20272;-68
2022/04/26 10:13:31;;;;;;;2.15;0.93;;;;;;;19.10;30.74;100650.69;5064681;28;20029;-68
2022/04/26 10:16:10;;;;;;;;;;;;;;;19.37;30.89;100653.09;5065531;28;20033;-68
2022/04/26 10:18:47;;;;;;;3.20;1.02;;;;;;;19.92;29.84;100653.44;5064966;28;20129;-69
2022/04/26 10:21:35;;;;;;;3.97;1.13;;;;;;;20.26;28.56;100654.59;5065123;28;20028;-69
2022/04/26 10:24:04;;;;;;;1.83;1.10;;;;;;;20.08;27.82;100658.06;5064976;28;20021;-68
2022/04/26 10:26:35;;;;;;;3.10;1.40;;;;;;;19.74;28.79;100653.31;5064794;28;20024;-69
2022/04/26 10:29:07;;;;;;;1.40;0.70;;;;;;;19.81;29.34;100662.66;5064747;28;20441;-70
2022/04/26 10:31:38;;;;;;;1.40;0.95;;;;;;;20.04;28.40;100652.94;5064870;28;20112;-69
2022/04/26 10:34:25;;;;;;;3.42;0.93;;;;;;;20.31;28.51;100664.91;5064727;28;20367;-69
2022/04/26 10:36:56;;;;;;;0.75;0.70;;;;;;;20.27;27.43;100666.00;5064540;28;20017;-69
2022/04/26 10:39:24;;;;;;;1.55;0.90;;;;;;;19.97;27.79;100663.78;5063591;28;20056;-68
2022/04/26 10:41:50;;;;;;;4.63;0.90;;;;;;;19.49;28.66;100662.25;5063375;28;20025;-67
2022/04/26 10:44:16;;;;;;;3.13;1.10;;;;;;;19.61;28.55;100660.88;5063569;28;20028;-69
2022/04/26 10:46:58;;;;;;;1.52;0.80;;;;;;;19.87;28.23;100656.25;5064224;28;20025;-68
2022/04/26 10:49:38;;;;;;;4.28;1.10;;;;;;;19.52;28.59;100663.91;5046310;28;20060;-69
2022/04/26 10:52:19;;;;;;;2.03;1.00;;;;;;;19.14;28.89;100667.19;5064611;28;20021;-69
2022/04/26 10:55:01;;;;;;;2.10;0.90;;;;;;;18.91;29.24;100675.03;5064544;28;20017;-69
2022/04/26 10:57:41;;;;;;;1.60;0.80;;;;;;;18.55;29.50;100673.78;5064168;28;20342;-69
2022/04/26 11:00:12;;;;;;;1.30;1.02;;;;;;;18.34;30.20;100685.94;5062923;28;20442;-69
2022/04/26 11:02:40;;;;;;;1.10;0.70;;;;;;;18.44;30.23;100678.59;5064275;28;20576;-69
2022/04/26 11:05:12;;;;;;;5.80;1.10;;;;;;;18.67;29.93;100671.59;5064122;28;20025;-69
2022/04/26 11:07:39;;;;;;;2.13;0.90;;;;;;;18.71;29.60;100675.81;5064085;28;20084;-69
2022/04/26 11:10:06;;;;;;;3.08;0.80;;;;;;;18.31;29.99;100684.28;5064099;28;20033;-69
2022/04/26 11:12:33;;;;;;;5.70;1.70;;;;;;;18.43;29.70;100669.84;5063736;28;20052;-69
2022/04/26 11:15:22;;;;;;;2.38;0.80;;;;;;;18.69;29.94;100681.13;5064089;28;20024;-69
2022/04/26 11:17:50;;;;;;;1.20;0.63;;;;;;;18.64;29.64;100676.97;5063883;28;20021;-69
2022/04/26 11:20:35;;;;;;;1.80;0.93;;;;;;;18.28;30.23;100675.66;5063779;28;20090;-68
2022/04/26 11:27:59;;;;;;;1.30;0.70;;;;;;;17.84;30.44;100687.69;5063544;28;20035;-69
2022/04/26 11:28:30;;;;;;;2.58;1.10;;;;;;;16.79;31.97;100683.06;5062577;28;20027;-69
2022/04/26 11:30:57;;;;;;;1.88;0.88;;;;;;;16.51;31.86;100669.94;5063013;28;20050;-69
2022/04/26 11:33:23;;;;;;;14.43;2.15;;;;;;;16.19;32.47;100683.03;5063429;28;20072;-70
2022/04/26 11:35:55;;;;;;;2.72;0.90;;;;;;;15.97;32.88;100688.84;5063961;28;20037;-70
2022/04/26 11:38:20;;;;;;;2.13;1.00;;;;;;;15.74;33.24;100672.84;5064040;28;20049;-70
2022/04/26 11:40:47;;;;;;;4.32;1.25;;;;;;;15.58;33.73;100677.59;5063373;28;20025;-68
2022/04/26 11:43:15;;;;;;;2.10;0.90;;;;;;;15.54;34.06;100688.19;5063118;28;20033;-70
2022/04/26 11:45:44;;;;;;;1.10;0.70;;;;;;;15.34;34.00;100682.53;5063488;28;20051;-70
2022/04/26 11:48:13;;;;;;;3.30;1.10;;;;;;;15.07;34.44;100684.91;5061796;28;20036;-70
2022/04/26 11:50:40;;;;;;;1.30;0.90;;;;;;;15.06;34.83;100688.44;5063196;28;20052;-70
2022/04/26 11:53:08;;;;;;;1.52;1.02;;;;;;;15.06;35.17;100682.31;5063213;28;20031;-70
2022/04/26 11:55:39;;;;;;;3.40;1.05;;;;;;;15.29;34.88;100688.78;5063206;28;20480;-70
2022/04/26 11:58:09;;;;;;;4.30;1.10;;;;;;;15.24;34.70;100688.88;5063182;28;20083;-69
2022/04/26 12:00:36;;;;;;;2.40;1.30;;;;;;;15.18;34.91;100687.28;5063193;28;20032;-69
2022/04/26 12:03:02;;;;;;;2.67;0.90;;;;;;;15.15;35.05;100689.94;5045282;28;20100;-69
2022/04/26 12:05:29;;;;;;;6.63;0.82;;;;;;;15.20;34.74;100697.69;5063129;28;20024;-70
2022/04/26 12:07:55;;;;;;;2.88;1.08;;;;;;;15.15;34.97;100689.09;5063059;28;20033;-70
2022/04/26 12:10:24;;;;;;;1.63;0.98;;;;;;;15.03;34.97;100703.31;5062931;28;20111;-70
2022/04/26 12:13:08;;;;;;;2.60;1.30;;;;;;;14.74;35.38;100697.78;5061394;28;20048;-70
2022/04/26 12:15:36;;;;;;;3.00;1.00;;;;;;;14.72;35.59;100710.03;5062983;28;20021;-70
2022/04/26 12:18:09;;;;;;;1.90;0.90;;;;;;;14.66;35.78;100700.56;5044908;28;20025;-70
2022/04/26 12:20:56;;;;;;;1.38;1.20;;;;;;;14.48;36.42;100710.50;5062852;28;20033;-69
2022/04/26 12:23:23;;;;;;;2.42;1.17;;;;;;;14.43;36.51;100714.94;5062964;28;20114;-70
2022/04/26 12:25:55;;;;;;;3.15;1.90;;;;;;;14.37;36.30;100715.06;5062879;28;20028;-70
2022/04/26 12:28:21;;;;;;;1.98;0.90;;;;;;;14.29;36.52;100716.97;5062666;28;20027;-70
2022/04/26 12:30:47;;;;;;;1.65;0.80;;;;;;;14.29;36.72;100715.22;5062682;28;20060;-68
2022/04/26 12:33:24;;;;;;;2.63;1.00;;;;;;;14.20;36.77;100715.41;5044646;28;20048;-69
2022/04/26 12:35:57;;;;;;;1.13;0.73;;;;;;;14.19;36.54;100716.28;5066441;28;20020;-70
2022/04/26 12:38:22;;;;;;;3.83;1.35;;;;;;;14.03;37.15;100715.69;5066687;28;20020;-69
2022/04/26 12:41:05;;;;;;;1.17;0.73;;;;;;;13.95;36.90;100719.31;5066721;28;20024;-69
2022/04/26 12:43:32;;;;;;;4.38;0.85;;;;;;;13.78;37.20;100719.59;5066457;28;20020;-69
2022/04/26 12:46:06;;;;;;;3.22;0.77;;;;;;;13.76;37.50;100713.53;5066871;28;20103;-68
2022/04/26 12:51:18;;;;;;;3.92;0.90;;;;;;;13.91;37.52;100722.88;5066898;28;20036;-69
2022/04/26 12:53:45;;;;;;;1.50;1.02;;;;;;;13.95;37.08;100708.00;5065307;28;20106;-69
2022/04/26 12:56:11;;;;;;;3.67;1.60;;;;;;;14.06;37.04;100719.09;5066563;28;20024;-69
2022/04/26 12:58:42;;;;;;;2.10;0.82;;;;;;;14.14;36.99;100708.53;5066029;28;20047;-68
2022/04/26 13:01:07;;;;;;;2.67;1.17;;;;;;;14.34;36.80;100718.63;5065644;28;20485;-70
2022/04/26 13:03:34;;;;;;;5.50;1.10;;;;;;;14.46;36.50;100719.25;5065990;28;20036;-68
2022/04/26 13:06:15;;;;;;;1.33;0.77;;;;;;;14.54;36.17;100722.56;5066473;28;20159;-69
2022/04/26 13:08:44;;;;;;;2.67;1.20;;;;;;;14.48;36.20;100714.84;5066510;28;20056;-69
2022/04/26 13:11:10;;;;;;;1.13;0.75;;;;;;;14.55;36.01;100723.44;5066374;28;20032;-69
2022/04/26 13:13:39;;;;;;;2.20;1.05;;;;;;;14.60;35.58;100721.59;5066124;28;20028;-70
2022/04/26 13:16:04;;;;;;;5.95;0.85;;;;;;;14.48;35.86;100723.56;5066026;28;20021;-69
2022/04/26 13:18:30;;;;;;;1.10;0.73;;;;;;;14.36;35.65;100711.59;5066055;28;20040;-69
2022/04/26 13:20:57;;;;;;;2.63;0.85;;;;;;;14.25;36.30;100743.13;5066248;28;20448;-69
2022/04/26 13:23:24;;;;;;;4.55;0.80;;;;;;;14.12;36.26;100707.72;5066935;28;20392;-71
2022/04/26 13:25:50;;;;;;;4.75;0.95;;;;;;;14.13;36.04;100728.56;5066589;28;20021;-71
2022/04/26 13:28:16;;;;;;;1.73;0.77;;;;;;;14.00;36.38;100732.28;5065840;28;20017;-69
2022/04/26 13:30:41;;;;;;;2.47;0.80;;;;;;;13.93;36.49;100720.22;5066058;28;20047;-69
2022/04/26 13:33:07;;;;;;;1.73;0.90;;;;;;;13.85;36.43;100723.81;5065723;28;20088;-69
2022/04/26 13:35:33;;;;;;;1.58;0.80;;;;;;;13.73;36.51;100730.13;5066040;28;20070;-68
2022/04/26 13:38:00;;;;;;;2.78;1.30;;;;;;;13.68;37.18;100728.44;5065778;28;20021;-69
2022/04/26 13:40:26;;;;;;;1.70;0.90;;;;;;;13.60;36.87;100724.22;5065793;28;20032;-68
2022/04/26 13:42:51;;;;;;;3.15;0.80;;;;;;;13.44;37.14;100722.72;5065583;28;20028;-69
2022/04/26 13:45:17;;;;;;;4.93;1.10;;;;;;;13.39;37.36;100723.66;5047468;28;20044;-70
2022/04/26 13:47:44;;;;;;;5.82;1.00;;;;;;;13.30;37.45;100723.78;5065380;28;20021;-69
2022/04/26 13:50:10;;;;;;;2.75;0.80;;;;;;;13.31;37.26;100722.91;5047558;28;20032;-70
2022/04/26 13:52:35;;;;;;;3.83;1.15;;;;;;;13.30;37.57;100725.53;5065660;28;20029;-70
2022/04/26 13:55:01;;;;;;;2.35;0.70;;;;;;;13.32;37.36;100719.38;5064190;28;20029;-69
2022/04/26 13:57:26;;;;;;;3.17;0.73;;;;;;;13.36;37.41;100733.25;5065226;28;20025;-71
2022/04/26 13:59:52;;;;;;;1.10;0.70;;;;;;;13.24;37.48;100721.28;5065461;28;20133;-70
2022/04/26 14:02:19;;;;;;;1.48;0.95;;;;;;;13.08;37.78;100718.84;5065385;28;20381;-69
2022/04/26 14:04:44;;;;;;;1.45;0.77;;;;;;;13.07;37.97;100730.19;5063919;28;20025;-69
2022/04/26 14:07:10;;;;;;;2.47;0.88;;;;;;;12.91;37.99;100734.72;5065156;28;20029;-69
2022/04/26 14:09:36;;;;;;;4.85;0.75;;;;;;;12.93;38.58;100726.91;5065237;28;20072;-70
2022/04/26 14:12:02;;;;;;;3.50;0.70;;;;;;;13.09;38.41;100733.63;5065168;28;20040;-70
2022/04/26 14:22:41;;;;;;;2.78;0.90;;;;;;;13.57;37.23;100724.28;5065632;28;20043;-70
2022/04/26 14:25:08;;;;;;;4.32;0.98;;;;;;;13.56;37.14;100726.91;5064049;28;20025;-69
2022/04/26 14:27:38;;;;;;;0.68;0.52;;;;;;;13.50;37.12;100731.34;5065177;28;20021;-69
2022/04/26 14:30:05;;;;;;;2.08;0.80;;;;;;;13.49;37.27;100731.31;5065424;28;20029;-69
2022/04/26 14:32:31;;;;;;;2.53;0.90;;;;;;;13.60;37.43;100729.44;5047228;28;20107;-69
2022/04/26 14:34:56;;;;;;;1.95;0.65;;;;;;;13.70;36.89;100737.13;5064526;28;20041;-69
2022/04/26 14:37:24;;;;;;;1.95;1.00;;;;;;;13.70;36.78;100740.59;5064789;28;20032;-69
2022/04/26 14:39:51;;;;;;;2.28;0.70;;;;;;;13.55;36.86;100728.66;5064288;28;20017;-70
2022/04/26 14:42:17;;;;;;;4.45;0.70;;;;;;;13.52;37.10;100733.91;5064546;28;20025;-69
2022/04/26 14:44:43;;;;;;;2.75;0.80;;;;;;;13.33;37.34;100715.06;5064825;28;20036;-69
2022/04/26 14:47:09;;;;;;;2.25;0.98;;;;;;;13.37;37.30;100735.00;5064731;28;20033;-69
2022/04/26 14:49:35;;;;;;;3.45;0.70;;;;;;;13.29;37.74;100726.41;5064800;28;20029;-68
2022/04/26 14:52:01;;;;;;;1.10;0.57;;;;;;;13.44;37.42;100743.56;5064635;28;20021;-70
2022/04/26 14:54:27;;;;;;;2.65;1.00;;;;;;;13.32;37.42;100755.91;5064536;28;20032;-69
2022/04/26 14:56:52;;;;;;;2.75;0.88;;;;;;;13.30;37.58;100747.25;5063904;28;20023;-70
2022/04/26 14:59:19;;;;;;;1.42;0.80;;;;;;;13.35;37.64;100748.06;5064247;28;20029;-70
2022/04/26 15:01:46;;;;;;;6.72;0.73;;;;;;;13.32;37.57;100737.63;5064611;28;20025;-70
2022/04/26 15:04:12;;;;;;;1.45;0.80;;;;;;;13.43;37.57;100749.69;5064446;28;20496;-70
2022/04/26 15:06:39;;;;;;;0.90;0.63;;;;;;;13.54;37.26;100757.38;5064036;28;20461;-69
2022/04/26 15:16:37;;;;;;;0.80;0.57;;;;;;;13.50;37.17;100752.19;5064036;28;20078;-69
2022/04/26 15:17:18;;;;;;;1.27;0.80;;;;;;;13.29;37.51;100753.34;5064022;28;20119;-69
2022/04/26 15:19:43;;;;;;;1.23;0.60;;;;;;;13.20;37.54;100771.72;5064155;28;20040;-68
2022/04/26 15:22:11;;;;;;;1.15;0.75;;;;;;;13.14;37.66;100757.91;5063836;28;20485;-68
2022/04/26 15:24:36;;;;;;;2.83;0.80;;;;;;;13.10;37.90;100761.41;5064086;28;20036;-69
2022/04/26 15:27:02;;;;;;;1.42;0.57;;;;;;;13.14;37.96;100770.94;5063777;28;20029;-69
2022/04/26 15:29:27;;;;;;;3.58;1.13;;;;;;;13.07;38.00;100765.78;5063772;28;20077;-69
2022/04/26 15:31:52;;;;;;;2.90;0.90;;;;;;;13.03;38.27;100775.44;5063615;28;20036;-68
2022/04/26 15:34:17;;;;;;;1.38;0.85;;;;;;;13.35;37.53;100763.72;5063679;28;20250;-69
2022/04/26 15:36:43;;;;;;;2.25;0.70;;;;;;;13.00;38.15;100768.50;5063522;28;20092;-69
2022/04/26 15:39:08;;;;;;;2.80;0.60;;;;;;;12.92;38.51;100782.50;5063870;28;20025;-69
2022/04/26 15:41:34;;;;;;;1.83;0.90;;;;;;;12.92;38.47;100778.16;5063613;28;20040;-70